Logan, Alabama
Current Conditions -  °F | °C
As of 7:35 PM on Friday 19 Dec 2014 (Local Time) from KCMD Reporting Station
Moderate Rain Moderate Rain  
Wind Chill: 35°   Ceiling: 2100
Heat Index: 38°   Visibility: 10mi
Dew Point: 32°   Wind: 5mph
Humidity: 79%   Direction: 30°NNE
Pressure: 30.2"   Gusts: NA
Location:  34.13°N, 87°W
Report Text: KCMD 200135Z AUTO 03004KT 10SM RA SCT011 SCT017 BKN021 04/00 A3020 RMK AO2 T00360002
Loading
Personal Weather Stations






























Interactive Weather Map New forecast layout! Learn more

10-Day Weather Forecast

Advertisements
Track Severe Weather on mobile